Time;durP1;ratioP1;P1;durP2;ratioP2;P2;SDS_P1;SDS_P2;PMS_P1;PMS_P2;Temp;Humidity;BMP_temperature;BMP_pressure;BME280_temperature;BME280_humidity;BME280_pressure;Samples;Min_cycle;Max_cycle;Signal;HPM_P1;HPM_P2
2022/08/11 00:00:12;;;;;;;10.73;4.30;;;;;;;15.29;56.85;100673.06;4741194;30;20055;-86
2022/08/11 00:02:42;;;;;;;11.38;4.20;;;;;;;15.76;56.56;100764.19;4724617;30;20079;-84
2022/08/11 00:05:20;;;;;;;12.18;4.40;;;;;;;15.89;56.89;100784.13;4742462;30;20609;-83
2022/08/11 00:07:55;;;;;;;10.18;4.10;;;;;;;15.88;56.66;100776.31;4741698;30;20603;-83
2022/08/11 00:10:26;;;;;;;8.93;4.30;;;;;;;15.76;56.82;100762.44;4743268;30;20059;-84
2022/08/11 00:13:02;;;;;;;18.60;4.70;;;;;;;15.87;57.05;100791.16;4725434;30;20040;-81
2022/08/11 00:15:40;;;;;;;10.38;4.25;;;;;;;15.48;57.08;100731.34;4742457;30;20056;-84
2022/08/11 00:18:08;;;;;;;16.23;4.20;;;;;;;15.79;57.11;100778.13;4715130;30;20505;-81
2022/08/11 00:20:38;;;;;;;13.65;4.43;;;;;;;15.83;57.38;100789.44;4743595;30;20066;-85
2022/08/11 00:23:13;;;;;;;11.63;4.28;;;;;;;15.61;57.27;100754.78;4726503;30;20525;-85
2022/08/11 00:25:42;;;;;;;10.02;4.35;;;;;;;15.81;57.49;100797.34;4743342;30;20080;-84
2022/08/11 00:28:31;;;;;;;13.80;4.65;;;;;;;15.78;57.28;100801.75;4744269;30;20059;-83
2022/08/11 00:31:06;;;;;;;12.00;4.28;;;;;;;15.75;57.50;100801.81;4745030;30;20064;-83
2022/08/11 00:33:43;;;;;;;10.68;4.13;;;;;;;15.73;57.83;100809.69;4753059;30;20726;-82
2022/08/11 00:36:14;;;;;;;10.60;3.78;;;;;;;15.46;57.93;100755.88;4762951;30;20096;-85
2022/08/11 00:38:44;;;;;;;8.83;3.70;;;;;;;15.59;57.76;100790.66;4753952;30;20041;-85
2022/08/11 00:41:31;;;;;;;7.63;3.03;;;;;;;15.71;58.08;100805.38;4748440;30;20205;-84
2022/08/11 00:44:30;;;;;;;8.43;3.45;;;;;;;15.68;57.94;100810.66;4710424;30;20591;-83
2022/08/11 00:47:02;;;;;;;7.55;3.20;;;;;;;15.69;58.02;100812.41;4727574;30;20090;-84
2022/08/11 00:49:46;;;;;;;8.10;3.30;;;;;;;15.68;58.28;100805.41;4735101;30;20044;-82
2022/08/11 00:52:25;;;;;;;9.07;3.40;;;;;;;15.65;58.34;100801.94;4734738;30;20060;-84
2022/08/11 00:55:18;;;;;;;5.20;2.67;;;;;;;15.65;58.46;100807.19;4728380;30;20037;-84
2022/08/11 00:58:08;;;;;;;9.68;3.20;;;;;;;15.65;58.59;100812.44;4710766;30;20060;-83
2022/08/11 01:01:17;;;;;;;6.45;2.83;;;;;;;15.62;58.91;100820.34;4724639;30;20430;-85
2022/08/11 01:04:21;;;;;;;7.03;2.75;;;;;;;15.58;59.04;100816.00;4710018;30;20461;-83
2022/08/11 01:06:57;;;;;;;6.57;2.78;;;;;;;15.30;59.05;100787.56;4726111;30;20575;-82
2022/08/11 01:09:38;;;;;;;6.95;2.67;;;;;;;15.52;59.14;100827.47;4723073;30;20048;-84
2022/08/11 01:12:27;;;;;;;5.55;2.38;;;;;;;15.35;59.59;100811.94;4725458;30;20098;-84
2022/08/11 01:15:24;;;;;;;7.57;2.40;;;;;;;15.48;59.44;100832.78;4712094;30;20065;-81
2022/08/11 01:18:09;;;;;;;3.90;2.25;;;;;;;15.46;59.90;100831.94;4729246;30;20115;-81
2022/08/11 01:21:12;;;;;;;4.57;2.03;;;;;;;15.45;59.76;100831.03;4731171;30;20052;-83
2022/08/11 01:23:57;;;;;;;6.10;2.20;;;;;;;15.44;59.98;100820.59;4736517;30;20053;-83
2022/08/11 01:27:08;;;;;;;7.15;2.05;;;;;;;15.32;60.15;100800.63;4736580;30;20036;-84
2022/08/11 01:30:12;;;;;;;4.07;1.75;;;;;;;15.44;60.33;100823.22;4733012;30;20134;-84
2022/08/11 01:33:15;;;;;;;3.50;1.90;;;;;;;15.42;60.63;100823.25;4744508;30;20041;-83
2022/08/11 01:36:16;;;;;;;3.05;1.70;;;;;;;15.39;60.99;100825.00;4732855;30;20120;-82
2022/08/11 01:39:00;;;;;;;2.35;1.52;;;;;;;15.40;61.11;100832.00;4744115;30;20053;-82
2022/08/11 01:44:48;;;;;;;3.35;1.50;;;;;;;15.42;61.30;100835.47;4747803;30;20052;-82
2022/08/11 01:47:50;;;;;;;3.05;1.58;;;;;;;15.44;61.55;100825.84;4744878;30;20040;-83
2022/08/11 01:50:38;;;;;;;3.85;1.70;;;;;;;15.44;61.46;100838.94;4733606;30;20049;-82
2022/08/11 01:53:27;;;;;;;2.72;1.52;;;;;;;15.46;61.52;100842.41;4740984;30;20063;-82
2022/08/11 01:56:03;;;;;;;1.80;1.50;;;;;;;15.45;61.22;100846.78;4742184;30;20044;-82
2022/08/11 01:58:56;;;;;;;5.35;1.63;;;;;;;15.45;61.19;100846.78;4728875;30;20105;-82
2022/08/11 02:01:36;;;;;;;2.78;1.40;;;;;;;15.45;61.36;100843.31;4748265;30;20577;-83
2022/08/11 02:04:17;;;;;;;2.05;1.27;;;;;;;15.09;61.13;100793.91;4727517;30;20063;-82
2022/08/11 02:07:20;;;;;;;4.30;1.65;;;;;;;15.43;61.19;100853.81;4734066;30;20052;-82
2022/08/11 02:13:52;;;;;;;2.25;1.30;;;;;;;15.20;61.00;100818.25;4734093;30;20114;-83
2022/08/11 02:16:40;;;;;;;3.00;1.65;;;;;;;15.44;60.90;100852.06;4722251;30;20060;-83
2022/08/11 02:26:03;;;;;;;3.42;1.20;;;;;;;15.35;61.13;100839.94;4725781;30;20056;-82
2022/08/11 02:28:51;;;;;;;3.35;1.50;;;;;;;15.40;61.01;100861.72;4722649;30;20075;-83
2022/08/11 02:34:42;;;;;;;3.78;1.70;;;;;;;15.54;61.18;100871.16;4730336;30;20047;-85
2022/08/11 02:37:23;;;;;;;3.10;1.30;;;;;;;15.58;61.12;100870.25;4726275;30;20075;-83
2022/08/11 02:39:55;;;;;;;3.67;1.50;;;;;;;15.65;60.92;100871.91;4726363;30;20040;-83
2022/08/11 02:43:05;;;;;;;4.70;1.85;;;;;;;15.72;60.73;100881.44;4730869;30;20061;-84
2022/08/11 02:45:53;;;;;;;2.13;1.45;;;;;;;15.72;60.77;100864.81;4726822;30;20078;-84
2022/08/11 02:51:41;;;;;;;2.72;1.70;;;;;;;15.86;60.60;100873.41;4743509;30;20059;-83
2022/08/11 02:54:15;;;;;;;4.13;1.85;;;;;;;15.92;60.58;100883.81;4744140;30;20127;-85
2022/08/11 02:56:53;;;;;;;2.33;1.60;;;;;;;15.99;60.64;100879.34;4744458;30;20057;-83
2022/08/11 02:59:50;;;;;;;3.97;1.80;;;;;;;16.07;60.31;100888.00;4742967;30;20055;-80
2022/08/11 03:02:39;;;;;;;5.10;1.70;;;;;;;16.15;60.41;100885.25;4730814;30;20044;-84
2022/08/11 03:05:13;;;;;;;4.82;1.83;;;;;;;16.20;60.18;100888.69;4744011;30;20048;-84
2022/08/11 03:07:39;;;;;;;6.07;2.05;;;;;;;16.24;60.49;100895.59;4742961;30;20048;-85
2022/08/11 03:10:24;;;;;;;6.57;1.83;;;;;;;16.28;60.37;100891.19;4733141;30;20079;-85
2022/08/11 03:16:45;;;;;;;7.13;2.17;;;;;;;16.53;59.88;100899.53;4745219;30;20136;-82
2022/08/11 03:19:20;;;;;;;3.75;2.03;;;;;;;16.49;59.84;100882.09;4728571;30;20067;-82
2022/08/11 03:22:12;;;;;;;7.53;2.53;;;;;;;16.59;59.91;100879.31;4744673;30;20139;-82
2022/08/11 03:25:00;;;;;;;4.53;1.85;;;;;;;16.75;59.53;100895.72;4741500;30;20052;-86
2022/08/11 03:28:03;;;;;;;5.97;2.03;;;;;;;16.88;59.44;100899.00;4745048;30;20051;-82
2022/08/11 03:30:41;;;;;;;4.75;2.28;;;;;;;16.79;59.01;100853.56;4744261;30;20833;-84
2022/08/11 03:36:59;;;;;;;4.15;2.35;;;;;;;17.21;58.74;100889.66;4731300;30;20056;-82
2022/08/11 03:39:47;;;;;;;4.25;2.40;;;;;;;17.33;58.51;100896.41;4717677;30;20407;-83
2022/08/11 03:42:27;;;;;;;4.75;2.53;;;;;;;17.43;58.28;100887.44;4720025;30;20076;-82
2022/08/11 03:45:13;;;;;;;6.30;2.45;;;;;;;17.52;57.86;100894.28;4708133;30;20048;-81
2022/08/11 03:48:01;;;;;;;4.80;2.50;;;;;;;17.63;57.94;100895.84;4695563;30;20056;-79
2022/08/11 03:50:39;;;;;;;4.63;2.33;;;;;;;17.62;57.83;100873.91;4745815;30;20040;-83
2022/08/11 03:53:43;;;;;;;10.50;2.65;;;;;;;17.91;57.55;100886.44;4734247;30;20134;-83
2022/08/11 03:56:51;;;;;;;6.00;2.22;;;;;;;17.95;57.35;100865.31;4709875;30;20052;-82
2022/08/11 03:59:39;;;;;;;4.65;2.38;;;;;;;18.29;57.06;100904.94;4710027;30;20075;-81
2022/08/11 04:02:33;;;;;;;5.57;2.28;;;;;;;18.43;56.57;100894.06;4723287;30;20141;-80
2022/08/11 04:05:23;;;;;;;4.95;2.45;;;;;;;18.58;56.18;100895.47;4723767;30;20457;-81
2022/08/11 04:08:14;;;;;;;7.22;2.53;;;;;;;18.78;56.07;100886.19;4705151;30;21014;-80
2022/08/11 04:10:57;;;;;;;7.40;2.42;;;;;;;18.92;55.61;100899.00;4711156;30;20044;-80
2022/08/11 04:13:44;;;;;;;3.22;2.25;;;;;;;19.12;55.43;100893.22;4711756;30;20501;-79
2022/08/11 04:16:39;;;;;;;2.95;2.05;;;;;;;19.30;54.90;100894.50;4722802;30;20147;-82
2022/08/11 04:19:33;;;;;;;5.32;2.20;;;;;;;19.49;54.53;100896.59;4712598;30;20075;-80
2022/08/11 04:22:31;;;;;;;6.95;2.20;;;;;;;19.68;53.87;100894.31;4713410;30;20052;-81
2022/08/11 04:25:03;;;;;;;3.67;2.05;;;;;;;19.81;54.03;100892.19;4712597;30;20094;-82
2022/08/11 04:27:44;;;;;;;5.35;2.45;;;;;;;20.01;53.45;100897.75;4700554;30;22357;-81
2022/08/11 04:30:27;;;;;;;6.78;2.15;;;;;;;20.12;52.91;100885.97;4740365;30;20055;-81
2022/08/11 04:33:18;;;;;;;6.97;2.17;;;;;;;20.30;52.85;100889.81;4728992;30;20049;-80
2022/08/11 04:35:45;;;;;;;4.53;1.90;;;;;;;20.41;52.09;100900.03;4705494;30;20049;-81
2022/08/11 04:38:42;;;;;;;4.65;2.10;;;;;;;20.49;52.12;100894.47;4725504;30;20689;-80
2022/08/11 04:43:19;;;;;;;3.60;2.20;;;;;;;20.59;52.05;100888.00;4732593;30;20084;-82
2022/08/11 04:45:09;;;;;;;5.10;2.10;;;;;;;20.60;52.36;100892.38;4722061;30;20126;-82
2022/08/11 05:03:46;;;;;;;6.95;3.53;;;;;;;21.86;50.04;100887.91;4709882;30;20064;-82
2022/08/11 05:06:29;;;;;;;6.68;2.60;;;;;;;21.78;49.87;100853.78;4725767;30;20096;-82
2022/08/11 05:09:17;;;;;;;3.28;2.10;;;;;;;22.23;49.39;100899.72;4705826;30;20075;-82
2022/08/11 05:12:01;;;;;;;5.13;1.98;;;;;;;22.38;49.12;100893.78;4731489;30;20093;-81
2022/08/11 05:35:44;;;;;;;2.00;1.60;;;;;;;25.89;44.93;100871.72;4717545;30;20052;-80
2022/08/11 05:58:06;;;;;;;6.45;1.83;;;;;;;38.89;24.90;100866.69;4732801;30;20050;-83
2022/08/11 06:00:42;;;;;;;4.07;1.90;;;;;;;39.84;23.86;100863.00;4731581;30;20037;-82
2022/08/11 06:03:09;;;;;;;4.78;1.95;;;;;;;40.01;23.05;100838.41;4732597;30;20148;-82
2022/08/11 06:05:38;;;;;;;4.53;1.90;;;;;;;40.93;21.68;100841.97;4744905;30;20059;-81
2022/08/11 06:08:08;;;;;;;4.10;1.75;;;;;;;41.63;20.88;100841.56;4717772;30;20048;-81
2022/08/11 06:10:38;;;;;;;1.88;1.63;;;;;;;42.26;20.12;100863.59;4730612;30;20044;-81
2022/08/11 06:13:06;;;;;;;4.95;1.80;;;;;;;42.81;19.16;100846.56;4745403;30;20048;-81
2022/08/11 06:15:43;;;;;;;3.88;1.70;;;;;;;43.44;18.55;100852.97;4730024;30;20113;-83
2022/08/11 06:18:11;;;;;;;5.85;2.00;;;;;;;44.04;18.09;100838.53;4744965;30;20040;-81
2022/08/11 06:20:48;;;;;;;3.70;1.90;;;;;;;44.81;17.33;100865.44;4745850;30;20413;-83
2022/08/11 06:23:17;;;;;;;5.28;2.10;;;;;;;44.95;17.16;100845.16;4727330;30;20052;-82
2022/08/11 06:25:44;;;;;;;2.40;2.10;;;;;;;45.35;16.06;100848.81;4726149;30;20230;-82
2022/08/11 06:28:11;;;;;;;2.03;1.70;;;;;;;45.90;15.82;100855.66;4728025;30;20043;-81
2022/08/11 06:30:40;;;;;;;3.00;1.90;;;;;;;46.42;15.38;100845.31;4722460;30;20103;-82
2022/08/11 06:33:30;;;;;;;2.97;1.85;;;;;;;47.27;14.64;100862.13;4743370;30;20143;-82
2022/08/11 06:36:06;;;;;;;3.40;2.10;;;;;;;47.78;14.12;100859.06;4748717;30;20060;-83
2022/08/11 06:39:11;;;;;;;5.50;2.10;;;;;;;48.30;13.96;100865.81;4735431;30;20041;-81
2022/08/11 06:42:02;;;;;;;2.70;1.83;;;;;;;48.73;13.61;100853.59;4743938;30;20581;-83
2022/08/11 06:44:41;;;;;;;2.95;2.35;;;;;;;49.13;12.84;100850.00;4730631;30;20051;-83
2022/08/11 06:47:10;;;;;;;2.80;2.38;;;;;;;49.66;12.71;100865.66;4744599;30;20098;-83
2022/08/11 06:52:38;;;;;;;4.78;2.17;;;;;;;49.76;12.39;100862.22;4745044;30;20100;-82
2022/08/11 06:55:10;;;;;;;3.22;2.20;;;;;;;50.02;11.96;100858.78;4742263;30;20473;-84
2022/08/11 07:00:27;;;;;;;5.82;2.22;;;;;;;50.44;11.44;100842.78;4757410;30;20056;-82
2022/08/11 07:03:07;;;;;;;2.22;1.83;;;;;;;49.97;11.62;100847.66;4748482;30;20542;-82
2022/08/11 07:05:51;;;;;;;3.78;2.00;;;;;;;50.21;11.28;100861.28;4731913;30;20082;-83
2022/08/11 07:17:17;;;;;;;3.90;2.10;;;;;;;50.93;11.13;100845.69;4744869;30;20040;-83
2022/08/11 07:31:12;;;;;;;2.57;1.83;;;;;;;52.63;9.53;100842.69;4743275;30;20412;-81
2022/08/11 07:33:58;;;;;;;2.22;1.80;;;;;;;52.03;9.47;100844.81;4743091;30;20668;-84
2022/08/11 07:36:29;;;;;;;2.85;1.90;;;;;;;51.37;9.61;100827.31;4742118;30;20040;-84
2022/08/11 07:38:56;;;;;;;3.42;1.80;;;;;;;50.73;9.75;100839.88;4732339;30;20127;-83
2022/08/11 07:41:24;;;;;;;2.47;1.60;;;;;;;48.76;10.31;100808.94;4752939;30;20064;-85
2022/08/11 07:43:54;;;;;;;2.03;1.63;;;;;;;46.73;11.17;100823.38;4750842;30;20060;-82
2022/08/11 07:54:40;;;;;;;2.08;1.55;;;;;;;49.41;10.65;100839.19;4741600;30;20078;-81
2022/08/11 08:19:20;;;;;;;1.98;1.77;;;;;;;53.18;8.62;100817.28;4760284;30;20135;-83
2022/08/11 08:21:47;;;;;;;1.80;1.70;;;;;;;52.30;8.67;100839.16;4765803;30;20044;-82
2022/08/11 08:24:14;;;;;;;1.70;1.50;;;;;;;52.62;8.64;100818.81;4755083;30;20096;-83
2022/08/11 08:26:58;;;;;;;6.10;2.08;;;;;;;54.46;7.75;100837.75;4723160;30;20045;-82
2022/08/11 08:32:12;;;;;;;2.35;2.00;;;;;;;55.12;7.41;100820.16;4743193;30;20048;-83
2022/08/11 08:34:42;;;;;;;2.28;2.08;;;;;;;53.88;7.92;100832.59;4762917;30;20523;-82
2022/08/11 08:37:09;;;;;;;1.80;1.70;;;;;;;54.01;7.77;100825.63;4732442;30;20044;-81
2022/08/11 08:39:36;;;;;;;2.00;1.80;;;;;;;52.93;8.18;100829.19;4750955;30;20538;-83
2022/08/11 08:42:10;;;;;;;3.03;1.80;;;;;;;51.33;8.73;100815.09;4759777;30;20056;-81
2022/08/11 08:44:44;;;;;;;2.42;1.80;;;;;;;52.08;8.06;100820.69;4741534;30;20094;-81
2022/08/11 08:47:16;;;;;;;1.75;1.65;;;;;;;52.72;7.79;100796.59;4729355;30;20052;-82
2022/08/11 08:49:49;;;;;;;2.15;1.63;;;;;;;53.66;7.19;100825.38;4727303;30;20048;-83
2022/08/11 08:52:22;;;;;;;2.67;1.77;;;;;;;53.63;7.32;100816.78;4741691;30;20044;-82
2022/08/11 08:54:54;;;;;;;5.13;1.80;;;;;;;51.98;7.33;100826.16;4739107;30;20178;-80
2022/08/11 08:57:27;;;;;;;2.05;1.58;;;;;;;50.69;8.01;100827.63;4739079;30;20063;-80
2022/08/11 08:59:56;;;;;;;2.17;1.50;;;;;;;48.77;9.26;100818.09;4755882;30;20407;-82
2022/08/11 09:02:27;;;;;;;2.33;1.50;;;;;;;46.99;10.21;100802.94;4738141;30;20411;-82
2022/08/11 09:04:54;;;;;;;1.50;1.40;;;;;;;45.37;11.34;100798.09;4728070;30;20053;-82
2022/08/11 09:07:25;;;;;;;3.35;1.30;;;;;;;46.69;10.92;100802.88;4748082;30;20041;-81
2022/08/11 09:09:53;;;;;;;2.60;1.50;;;;;;;48.20;10.13;100806.63;4750660;30;20047;-87
2022/08/11 09:12:27;;;;;;;4.15;1.50;;;;;;;49.96;9.21;100771.31;4739998;30;20048;-81
2022/08/11 09:15:04;;;;;;;4.20;1.90;;;;;;;50.78;9.16;100812.25;4712998;30;20052;-81
2022/08/11 09:17:37;;;;;;;1.65;1.55;;;;;;;50.21;8.72;100811.50;4742503;30;20245;-81
2022/08/11 09:20:23;;;;;;;1.70;1.60;;;;;;;48.87;9.43;100779.63;4761704;30;20056;-81
2022/08/11 09:28:22;;;;;;;1.65;1.40;;;;;;;44.09;12.09;100792.16;4767419;30;20036;-83
2022/08/11 09:30:53;;;;;;;2.15;1.48;;;;;;;44.05;12.28;100777.19;4753322;30;20059;-82
2022/08/11 09:33:22;;;;;;;2.00;1.35;;;;;;;46.26;11.54;100797.19;4741511;30;20459;-84
2022/08/11 09:35:50;;;;;;;2.70;1.40;;;;;;;48.23;10.37;100767.50;4722869;30;20056;-83
2022/08/11 09:41:07;;;;;;;2.55;1.75;;;;;;;50.51;9.11;100799.22;4746158;30;20048;-83
2022/08/11 09:46:27;;;;;;;3.50;1.80;;;;;;;50.93;8.72;100793.06;4739265;30;20060;-83
2022/08/11 09:48:57;;;;;;;1.92;1.67;;;;;;;51.41;8.45;100786.91;4722954;30;20048;-82
2022/08/11 09:51:25;;;;;;;2.10;1.90;;;;;;;51.41;8.18;100761.13;4724682;30;20067;-82
2022/08/11 09:53:52;;;;;;;2.20;2.10;;;;;;;50.79;7.77;100784.31;4727428;30;20102;-82
2022/08/11 09:59:08;;;;;;;2.35;2.25;;;;;;;50.73;7.89;100767.91;4705942;30;20518;-83
2022/08/11 10:01:49;;;;;;;1.70;1.60;;;;;;;50.96;7.85;100754.88;4738208;30;20461;-83
2022/08/11 10:04:19;;;;;;;2.03;1.90;;;;;;;51.80;7.47;100745.06;4724191;30;20053;-85
2022/08/11 10:07:02;;;;;;;1.88;1.77;;;;;;;52.82;7.21;100781.09;4738854;30;20052;-83
2022/08/11 10:09:50;;;;;;;3.05;1.92;;;;;;;53.41;6.80;100784.53;4731478;30;20100;-82
2022/08/11 10:12:25;;;;;;;2.15;2.03;;;;;;;53.46;6.75;100781.75;4730248;30;20054;-82
2022/08/11 10:15:33;;;;;;;2.43;1.77;;;;;;;52.52;7.46;100788.19;4722711;30;20051;-82
2022/08/11 10:21:35;;;;;;;1.75;1.65;;;;;;;49.09;8.76;100779.81;4717689;30;20040;-82
2022/08/11 10:26:57;;;;;;;2.33;1.52;;;;;;;45.78;10.45;100779.44;4721138;30;20040;-83
2022/08/11 10:35:16;;;;;;;2.53;1.58;;;;;;;41.54;13.11;100767.13;4718496;30;20045;-81
2022/08/11 10:37:46;;;;;;;1.52;1.35;;;;;;;42.43;12.57;100730.22;4718430;30;20049;-83
2022/08/11 10:40:21;;;;;;;2.30;1.38;;;;;;;42.58;12.44;100738.28;4709679;30;20052;-83
2022/08/11 10:43:11;;;;;;;2.83;1.35;;;;;;;42.00;12.50;100744.88;4729888;30;20073;-81
2022/08/11 10:48:31;;;;;;;2.60;1.60;;;;;;;39.38;14.87;100757.66;4722666;30;20395;-80
2022/08/11 10:51:13;;;;;;;2.70;1.30;;;;;;;38.64;15.33;100767.00;4703067;30;20052;-77
2022/08/11 10:59:26;;;;;;;1.70;1.40;;;;;;;36.40;17.47;100757.59;4705555;30;20045;-81
2022/08/11 11:01:53;;;;;;;1.67;1.58;;;;;;;35.95;17.61;100751.31;4715951;30;20730;-79
2022/08/11 11:04:37;;;;;;;3.40;1.52;;;;;;;35.41;17.68;100748.59;4720137;30;20065;-83
2022/08/11 11:07:22;;;;;;;1.33;1.23;;;;;;;35.18;18.22;100764.41;4720537;30;20047;-78
2022/08/11 11:09:59;;;;;;;4.22;1.40;;;;;;;34.93;18.32;100753.28;4718952;30;20048;-81
2022/08/11 11:18:41;;;;;;;3.42;1.50;;;;;;;33.89;20.02;100760.34;4709901;30;20057;-80
2022/08/11 11:21:08;;;;;;;3.35;1.50;;;;;;;33.62;20.25;100760.06;4737906;30;20163;-80
2022/08/11 11:23:51;;;;;;;1.77;1.58;;;;;;;33.56;20.16;100748.97;4728669;30;20056;-82
2022/08/11 11:26:32;;;;;;;3.42;1.65;;;;;;;33.07;21.03;100717.38;4737934;30;20052;-81
2022/08/11 11:29:14;;;;;;;1.70;1.60;;;;;;;32.62;21.18;100718.59;4738859;30;20068;-81
2022/08/11 11:32:05;;;;;;;3.75;1.58;;;;;;;32.56;21.31;100746.94;4707833;30;20057;-83
2022/08/11 11:35:01;;;;;;;3.42;1.70;;;;;;;32.40;21.42;100746.56;4702708;30;20383;-80
2022/08/11 11:37:34;;;;;;;1.92;1.40;;;;;;;32.18;21.83;100750.22;4719152;30;20463;-79
2022/08/11 11:40:24;;;;;;;2.03;1.50;;;;;;;31.97;21.99;100753.75;4713399;30;20049;-82
2022/08/11 11:42:53;;;;;;;3.00;1.67;;;;;;;31.35;22.97;100742.72;4736268;30;20084;-82
2022/08/11 11:45:44;;;;;;;2.08;1.60;;;;;;;30.93;23.28;100708.44;4713755;30;20514;-83
2022/08/11 11:49:07;;;;;;;3.20;1.63;;;;;;;30.42;22.76;100646.22;4705178;30;20052;-80
2022/08/11 11:52:00;;;;;;;5.32;1.70;;;;;;;30.24;23.29;100667.31;4726216;30;20064;-80
2022/08/11 12:04:35;;;;;;;2.55;1.55;;;;;;;28.82;24.57;100689.44;4711937;30;20472;-80
2022/08/11 12:10:31;;;;;;;6.10;1.80;;;;;;;28.25;25.17;100692.47;4719185;30;20433;-82
2022/08/11 12:16:35;;;;;;;2.25;1.40;;;;;;;27.83;25.84;100654.31;4719682;30;20484;-81
2022/08/11 12:19:58;;;;;;;2.72;1.60;;;;;;;28.44;26.10;100734.00;4702662;30;20529;-84
2022/08/11 12:29:14;;;;;;;3.50;1.50;;;;;;;28.06;27.05;100740.97;4724467;30;20413;-82
2022/08/11 12:31:50;;;;;;;1.60;1.50;;;;;;;27.75;27.50;100710.09;4728303;30;20087;-84
2022/08/11 12:34:29;;;;;;;2.97;1.63;;;;;;;27.53;27.39;100675.97;4740347;30;20048;-84
2022/08/11 12:37:09;;;;;;;3.47;1.80;;;;;;;27.63;27.15;100693.06;4723541;30;20061;-83
2022/08/11 12:45:28;;;;;;;1.60;1.50;;;;;;;28.05;27.39;100746.44;4734596;30;20553;-84
2022/08/11 12:54:21;;;;;;;2.22;1.80;;;;;;;27.58;27.08;100724.63;4720541;30;20051;-82
2022/08/11 13:05:13;;;;;;;3.30;1.85;;;;;;;27.29;28.14;100741.53;4735610;30;20076;-82
2022/08/11 13:07:44;;;;;;;3.38;1.60;;;;;;;27.24;28.72;100749.03;4749021;30;20410;-84
2022/08/11 13:10:14;;;;;;;2.50;1.60;;;;;;;27.06;28.54;100725.19;4733603;30;20063;-83
2022/08/11 13:12:47;;;;;;;2.53;1.58;;;;;;;27.02;28.72;100725.47;4750966;30;20804;-82
2022/08/11 13:15:37;;;;;;;1.50;1.40;;;;;;;27.03;28.17;100744.06;4764371;30;20121;-81
2022/08/11 13:18:06;;;;;;;2.25;1.80;;;;;;;26.55;28.99;100701.66;4753605;30;20052;-79
2022/08/11 13:20:34;;;;;;;5.15;1.80;;;;;;;26.75;29.06;100736.91;4760320;30;20052;-82
2022/08/11 13:23:01;;;;;;;3.70;1.58;;;;;;;26.73;29.05;100741.47;4752142;30;20049;-82
2022/08/11 13:28:59;;;;;;;2.53;1.50;;;;;;;26.02;29.57;100643.47;4732385;30;20071;-82
2022/08/11 13:31:31;;;;;;;2.05;1.70;;;;;;;26.55;29.38;100738.16;4752833;30;20040;-83
2022/08/11 13:34:02;;;;;;;1.60;1.40;;;;;;;26.56;29.16;100737.22;4742561;30;20056;-82
2022/08/11 13:36:29;;;;;;;2.70;1.30;;;;;;;26.51;29.67;100739.28;4754739;30;20079;-82
2022/08/11 13:38:59;;;;;;;1.90;1.63;;;;;;;26.36;29.07;100725.94;4739341;30;20049;-84
2022/08/11 13:41:38;;;;;;;2.50;1.70;;;;;;;26.07;29.27;100677.84;4736718;30;20057;-82
2022/08/11 13:44:11;;;;;;;2.55;1.65;;;;;;;25.71;29.47;100633.78;4753403;30;20438;-82
2022/08/11 13:46:38;;;;;;;2.67;1.60;;;;;;;26.25;29.46;100718.59;4762260;30;20051;-82
2022/08/11 13:49:07;;;;;;;3.58;1.83;;;;;;;26.32;29.84;100735.09;4759032;30;20053;-82
2022/08/11 13:51:36;;;;;;;3.17;1.88;;;;;;;26.05;29.81;100695.75;4738561;30;20044;-83
2022/08/11 13:54:20;;;;;;;4.65;1.70;;;;;;;26.24;29.26;100726.69;4752083;30;20089;-84
2022/08/11 13:56:51;;;;;;;1.88;1.70;;;;;;;26.14;29.70;100727.25;4738802;30;20103;-85
2022/08/11 13:59:24;;;;;;;;;;;;;;;26.11;29.33;100722.06;4737391;30;20507;-85
2022/08/11 14:02:00;;;;;;;2.85;1.90;;;;;;;25.86;29.50;100707.50;4737969;30;20407;-84
2022/08/11 14:04:32;;;;;;;2.33;1.80;;;;;;;25.82;29.92;100705.13;4751057;30;20044;-81
2022/08/11 14:07:05;;;;;;;1.98;1.73;;;;;;;25.63;30.03;100686.69;4738043;30;20056;-82
2022/08/11 14:09:36;;;;;;;2.80;1.70;;;;;;;25.77;30.21;100700.03;4736393;30;20051;-82
2022/08/11 14:15:09;;;;;;;2.22;1.48;;;;;;;25.71;30.24;100695.06;4736823;30;20049;-83
2022/08/11 14:17:39;;;;;;;3.22;1.85;;;;;;;25.81;30.22;100716.75;4737127;30;20689;-84
2022/08/11 14:20:17;;;;;;;2.20;2.00;;;;;;;25.78;30.04;100715.09;4739495;30;20044;-84
2022/08/11 14:22:45;;;;;;;4.75;2.13;;;;;;;25.76;30.36;100705.47;4755260;30;20506;-83
2022/08/11 14:25:15;;;;;;;2.75;2.00;;;;;;;25.43;30.09;100664.72;4738776;30;20044;-83
2022/08/11 14:27:43;;;;;;;4.90;2.05;;;;;;;25.51;30.67;100669.59;4739516;30;20131;-84
2022/08/11 14:30:53;;;;;;;3.13;1.90;;;;;;;25.69;30.44;100713.81;4736316;30;20040;-84
2022/08/11 14:32:57;;;;;;;2.17;1.75;;;;;;;25.63;30.57;100705.34;4738528;30;20586;-84
2022/08/11 14:35:26;;;;;;;3.25;1.85;;;;;;;25.60;30.34;100701.03;4751610;30;20052;-83
2022/08/11 14:37:52;;;;;;;2.88;2.15;;;;;;;25.34;30.13;100662.53;4736544;30;20134;-83
2022/08/11 14:48:36;;;;;;;2.28;1.60;;;;;;;25.10;30.80;100641.69;4763576;30;20041;-84
2022/08/11 14:51:04;;;;;;;6.75;2.47;;;;;;;25.06;31.13;100633.03;4740910;30;20024;-81
2022/08/11 14:53:31;;;;;;;4.55;2.47;;;;;;;25.28;31.19;100685.06;4823909;24;20561;-83
2022/08/11 14:58:44;;;;;;;3.20;2.35;;;;;;;25.00;31.20;100651.16;4751496;30;20370;-84
2022/08/11 15:03:58;;;;;;;7.45;2.17;;;;;;;25.21;31.43;100689.00;4759474;30;20408;-81
2022/08/11 15:06:27;;;;;;;2.72;1.73;;;;;;;25.06;31.70;100670.31;4776438;30;20123;-85
2022/08/11 15:08:54;;;;;;;3.42;1.83;;;;;;;24.71;31.48;100616.38;4775373;30;20083;-81
2022/08/11 15:14:10;;;;;;;4.32;1.75;;;;;;;24.84;31.33;100656.47;4760153;30;20043;-81
2022/08/11 15:19:27;;;;;;;3.33;1.83;;;;;;;24.72;31.88;100660.66;4773674;30;20036;-82
2022/08/11 15:24:38;;;;;;;2.00;1.80;;;;;;;24.41;32.11;100630.38;4747973;30;20109;-84
2022/08/11 15:38:18;;;;;;;8.40;2.20;;;;;;;24.25;32.92;100651.63;4779168;30;20111;-84
2022/08/11 15:46:38;;;;;;;3.22;2.00;;;;;;;24.32;32.76;100688.44;4784405;29;20028;-81
2022/08/11 15:49:37;;;;;;;3.83;2.70;;;;;;;24.25;32.90;100699.47;4745181;30;20059;-81
2022/08/11 15:52:36;;;;;;;3.45;2.53;;;;;;;23.67;32.96;100612.00;4753310;30;20067;-83
2022/08/11 15:55:30;;;;;;;3.28;2.10;;;;;;;24.10;32.75;100695.81;4725552;30;20078;-83
2022/08/11 16:04:10;;;;;;;4.80;2.30;;;;;;;23.40;33.21;100623.09;4716890;30;20053;-86
2022/08/11 16:06:46;;;;;;;3.97;2.00;;;;;;;23.80;33.63;100691.94;4756341;30;20050;-81
2022/08/11 16:09:32;;;;;;;3.67;2.22;;;;;;;23.66;33.91;100679.34;4780436;30;20056;-84
2022/08/11 16:12:03;;;;;;;3.67;2.50;;;;;;;23.66;34.13;100697.06;4758390;30;20081;-84
2022/08/11 16:17:25;;;;;;;2.95;2.40;;;;;;;23.35;35.01;100666.72;4760741;30;20054;-79
2022/08/11 16:19:55;;;;;;;6.25;2.42;;;;;;;23.37;35.68;100688.75;4784566;30;20082;-79
2022/08/11 16:22:41;;;;;;;5.60;3.05;;;;;;;23.35;35.89;100698.59;4788419;30;20064;-78
2022/08/11 16:25:13;;;;;;;5.88;2.80;;;;;;;23.23;36.03;100684.13;4804088;30;20192;-78
2022/08/11 16:27:48;;;;;;;12.57;3.05;;;;;;;23.12;36.81;100682.78;4766412;30;20051;-78
2022/08/11 16:30:14;;;;;;;5.78;2.70;;;;;;;22.97;37.27;100672.91;4772773;30;20067;-79
2022/08/11 16:32:45;;;;;;;5.78;3.40;;;;;;;22.96;37.53;100689.75;4773757;30;20146;-78
2022/08/11 16:40:53;;;;;;;11.25;3.40;;;;;;;22.44;38.08;100661.19;4785796;29;20119;-77
2022/08/11 16:49:02;;;;;;;10.25;4.10;;;;;;;22.12;39.30;100674.91;4776649;30;19914;-79
2022/08/11 16:51:28;;;;;;;12.18;6.93;;;;;;;22.09;39.46;100693.56;4776850;30;20055;-81
2022/08/11 16:53:57;;;;;;;2.65;2.40;;;;;;;21.80;41.18;100664.75;4815112;29;20059;-78
2022/08/11 16:56:42;;;;;;;18.27;7.20;;;;;;;21.86;41.28;100695.41;4785952;29;20051;-78
2022/08/11 16:59:19;;;;;;;26.03;9.53;;;;;;;21.75;42.27;100698.50;4765151;29;20027;-80
2022/08/11 17:01:55;;;;;;;19.77;8.00;;;;;;;21.46;43.27;100673.19;4822710;29;20292;-79
2022/08/11 17:13:54;;;;;;;12.45;5.82;;;;;;;21.10;46.21;100701.06;4761506;30;20172;-77
2022/08/11 17:16:40;;;;;;;17.95;10.13;;;;;;;20.99;46.76;100706.75;4751433;30;20040;-76
2022/08/11 17:19:25;;;;;;;38.58;22.83;;;;;;;20.82;47.12;100695.97;4746133;30;20181;-81
2022/08/11 17:25:12;;;;;;;15.88;7.13;;;;;;;20.61;47.98;100715.16;4761479;30;20051;-81